Time;durP1;ratioP1;P1;durP2;ratioP2;P2;SDS_P1;SDS_P2;PMS_P1;PMS_P2;Temp;Humidity;BMP_temperature;BMP_pressure;BME280_temperature;BME280_humidity;BME280_pressure;Samples;Min_cycle;Max_cycle;Signal;HPM_P1;HPM_P2
2021/01/17 00:00:34;;;;;;;39.10;30.27;;;2.90;86.90;;;;;;4996346;28;20034;-75
2021/01/17 00:03:02;;;;;;;40.27;31.27;;;3.00;86.60;;;;;;4996850;28;20030;-75
2021/01/17 00:05:29;;;;;;;37.40;30.17;;;3.20;86.20;;;;;;4995052;28;20419;-74
2021/01/17 00:07:55;;;;;;;41.20;33.33;;;3.20;86.10;;;;;;4996243;28;20037;-75
2021/01/17 00:10:28;;;;;;;42.00;32.90;;;3.20;86.20;;;;;;4996176;28;20379;-74
2021/01/17 00:12:54;;;;;;;42.67;33.80;;;3.20;86.30;;;;;;4996282;28;20054;-75
2021/01/17 00:15:21;;;;;;;43.60;34.57;;;3.10;86.20;;;;;;4995981;28;20386;-75
2021/01/17 00:17:47;;;;;;;43.70;35.70;;;3.10;86.90;;;;;;4995942;28;20431;-75
2021/01/17 00:20:13;;;;;;;42.30;34.43;;;3.10;86.60;;;;;;4995985;28;20042;-75
2021/01/17 00:22:39;;;;;;;51.07;37.03;;;3.10;87.00;;;;;;4994625;28;20077;-74
2021/01/17 00:25:05;;;;;;;45.97;34.53;;;3.20;86.60;;;;;;4996082;28;20467;-75
2021/01/17 00:27:31;;;;;;;44.87;33.67;;;3.30;86.40;;;;;;4995862;28;20113;-75
2021/01/17 00:29:56;;;;;;;46.27;34.43;;;3.20;86.20;;;;;;4995821;28;20070;-75
2021/01/17 00:32:22;;;;;;;42.73;32.87;;;3.10;86.70;;;;;;4995569;28;20151;-75
2021/01/17 00:34:47;;;;;;;43.77;34.50;;;3.10;86.60;;;;;;4994534;28;20034;-75
2021/01/17 00:37:17;;;;;;;51.77;36.17;;;3.10;87.50;;;;;;4995794;28;20050;-75
2021/01/17 00:39:42;;;;;;;52.30;38.43;;;3.10;87.40;;;;;;4995864;28;20460;-74
2021/01/17 00:42:17;;;;;;;48.67;36.93;;;3.40;86.20;;;;;;4995515;28;20030;-75
2021/01/17 00:44:43;;;;;;;42.57;33.73;;;3.40;85.80;;;;;;4995515;28;20026;-75
2021/01/17 00:47:12;;;;;;;51.60;36.23;;;3.30;86.40;;;;;;4995576;28;20089;-75
2021/01/17 00:49:38;;;;;;;48.03;36.43;;;3.40;86.30;;;;;;4995398;28;20471;-75
2021/01/17 00:52:04;;;;;;;48.60;36.27;;;3.40;86.10;;;;;;4995383;28;20062;-75
2021/01/17 00:54:29;;;;;;;47.50;35.53;;;3.40;86.20;;;;;;4995297;28;20542;-75
2021/01/17 00:56:55;;;;;;;43.87;35.13;;;3.40;86.30;;;;;;4994038;28;20034;-75
2021/01/17 00:59:20;;;;;;;51.83;38.13;;;3.50;86.00;;;;;;4995126;28;20026;-75
2021/01/17 01:01:46;;;;;;;49.37;37.47;;;3.50;85.60;;;;;;4995070;28;20034;-75
2021/01/17 01:04:16;;;;;;;43.90;34.53;;;3.60;85.80;;;;;;4995212;28;20042;-75
2021/01/17 01:06:41;;;;;;;46.97;35.73;;;3.50;85.70;;;;;;4995289;28;20027;-75
2021/01/17 01:09:11;;;;;;;40.47;33.87;;;3.60;85.70;;;;;;4995035;28;20042;-75
2021/01/17 01:11:37;;;;;;;45.03;34.07;;;3.50;85.50;;;;;;4995010;28;20037;-74
2021/01/17 01:14:06;;;;;;;43.93;34.20;;;3.50;86.20;;;;;;4994878;28;20038;-75
2021/01/17 01:16:31;;;;;;;48.63;36.00;;;3.50;86.20;;;;;;4993844;28;20018;-75
2021/01/17 01:18:58;;;;;;;41.50;33.03;;;3.70;85.50;;;;;;4994808;28;20050;-75
2021/01/17 01:21:25;;;;;;;45.43;35.83;;;3.50;85.70;;;;;;4995385;28;20030;-75
2021/01/17 01:23:50;;;;;;;49.60;36.90;;;3.50;86.50;;;;;;4994956;28;20033;-75
2021/01/17 01:26:20;;;;;;;56.13;38.03;;;3.60;86.30;;;;;;4994499;28;20034;-75
2021/01/17 01:28:46;;;;;;;58.17;39.60;;;3.80;85.50;;;;;;4994756;28;20081;-75
2021/01/17 01:31:19;;;;;;;53.03;39.23;;;3.80;85.00;;;;;;4994869;28;20481;-75
2021/01/17 01:33:44;;;;;;;53.37;38.83;;;3.80;85.20;;;;;;4994809;28;20371;-75
2021/01/17 01:36:17;;;;;;;63.20;42.57;;;3.60;86.00;;;;;;4994570;28;20030;-75
2021/01/17 01:38:43;;;;;;;67.77;44.23;;;3.80;85.60;;;;;;4994745;28;20026;-76
2021/01/17 01:41:08;;;;;;;75.90;47.70;;;3.90;85.00;;;;;;4994816;28;20084;-74
2021/01/17 01:43:34;;;;;;;69.73;46.73;;;3.90;84.70;;;;;;4994658;28;20034;-75
2021/01/17 01:45:59;;;;;;;76.17;48.17;;;4.00;84.70;;;;;;4994169;28;20033;-75
2021/01/17 01:48:25;;;;;;;74.07;48.30;;;4.00;84.80;;;;;;4994454;28;20031;-75
2021/01/17 01:50:50;;;;;;;92.87;50.70;;;4.10;84.50;;;;;;4993139;28;20034;-75
2021/01/17 01:53:16;;;;;;;84.67;49.13;;;4.20;84.40;;;;;;4994398;28;20042;-74
2021/01/17 01:55:42;;;;;;;84.37;47.27;;;4.30;84.10;;;;;;4993134;28;20139;-75
2021/01/17 01:58:07;;;;;;;85.40;48.97;;;4.20;84.60;;;;;;4994468;28;20112;-75
2021/01/17 02:00:33;;;;;;;88.33;48.37;;;4.20;84.50;;;;;;4992983;28;20077;-74
2021/01/17 02:02:59;;;;;;;86.07;49.63;;;4.20;84.70;;;;;;4994293;28;20030;-75
2021/01/17 02:05:24;;;;;;;87.63;50.47;;;4.00;85.60;;;;;;4994259;28;20037;-74
2021/01/17 02:07:56;;;;;;;108.30;53.27;;;4.00;85.70;;;;;;4994284;28;20030;-75
2021/01/17 02:10:21;;;;;;;109.00;54.83;;;4.20;85.50;;;;;;4992985;28;20022;-75
2021/01/17 02:12:52;;;;;;;115.37;59.43;;;4.20;85.00;;;;;;4993075;28;20104;-75
2021/01/17 02:15:30;;;;;;;114.32;57.97;;;4.40;84.90;;;;;;4993443;28;20383;-75
2021/01/17 02:18:02;;;;;;;141.70;63.37;;;4.50;84.40;;;;;;4994142;28;20018;-75
2021/01/17 02:20:27;;;;;;;109.10;57.97;;;4.40;84.30;;;;;;4993280;28;20026;-75
2021/01/17 02:23:02;;;;;;;120.53;57.83;;;4.40;84.80;;;;;;4992716;28;20053;-75
2021/01/17 02:25:34;;;;;;;127.17;60.87;;;4.30;85.50;;;;;;4992791;28;20026;-75
2021/01/17 02:28:19;;;;;;;143.43;65.77;;;4.40;85.60;;;;;;4992688;28;20479;-75
2021/01/17 02:30:47;;;;;;;146.20;64.57;;;4.50;85.50;;;;;;4992992;28;20019;-75
2021/01/17 02:33:15;;;;;;;153.50;68.90;;;4.40;85.60;;;;;;4994108;28;20026;-75
2021/01/17 02:35:41;;;;;;;159.63;71.00;;;4.50;85.50;;;;;;4993211;28;20027;-74
2021/01/17 02:38:18;;;;;;;168.90;72.83;;;4.60;85.50;;;;;;4992796;28;20034;-75
2021/01/17 02:40:48;;;;;;;187.83;73.17;;;4.70;85.20;;;;;;4993818;28;20464;-75
2021/01/17 02:43:14;;;;;;;159.70;71.10;;;4.70;85.50;;;;;;4994070;28;20030;-75
2021/01/17 02:45:39;;;;;;;169.57;71.93;;;4.70;85.30;;;;;;4992463;28;20031;-75
2021/01/17 02:48:05;;;;;;;165.30;73.67;;;4.70;85.70;;;;;;4992676;28;20125;-75
2021/01/17 02:50:31;;;;;;;181.60;74.53;;;4.70;85.80;;;;;;4993831;28;20049;-75
2021/01/17 02:53:04;;;;;;;158.73;70.10;;;4.70;85.60;;;;;;4993701;28;20034;-75
2021/01/17 02:55:30;;;;;;;173.80;73.63;;;4.60;86.80;;;;;;4992793;28;20026;-75
2021/01/17 02:57:56;;;;;;;177.97;71.37;;;4.70;86.60;;;;;;4995356;28;20057;-75
2021/01/17 03:00:23;;;;;;;192.83;75.73;;;4.80;86.50;;;;;;4996481;28;20121;-75
2021/01/17 03:02:50;;;;;;;200.00;78.80;;;4.90;86.30;;;;;;4997567;28;20527;-75
2021/01/17 03:05:17;;;;;;;184.10;73.93;;;5.00;85.60;;;;;;4996228;28;20459;-75
2021/01/17 03:07:46;;;;;;;182.37;72.43;;;5.10;85.70;;;;;;4996156;28;20507;-75
2021/01/17 03:10:12;;;;;;;165.27;68.03;;;5.20;85.60;;;;;;4996126;28;20432;-75
2021/01/17 03:12:37;;;;;;;175.43;73.17;;;5.20;85.40;;;;;;4996003;28;20058;-75
2021/01/17 03:15:04;;;;;;;167.43;70.03;;;5.30;85.30;;;;;;4997302;28;20030;-75
2021/01/17 03:17:30;;;;;;;167.50;68.87;;;5.30;85.00;;;;;;4996033;28;20042;-75
2021/01/17 03:19:55;;;;;;;179.77;71.10;;;5.30;85.20;;;;;;4997138;28;20038;-75
2021/01/17 03:22:21;;;;;;;196.87;74.73;;;5.30;85.20;;;;;;4997260;28;20522;-75
2021/01/17 03:24:46;;;;;;;147.90;62.30;;;5.30;85.80;;;;;;4997057;28;20038;-75
2021/01/17 03:27:12;;;;;;;150.43;62.67;;;5.30;86.30;;;;;;4996851;28;20113;-75
2021/01/17 03:29:37;;;;;;;153.43;66.50;;;5.30;86.50;;;;;;4996978;28;20089;-75
2021/01/17 03:32:03;;;;;;;148.97;61.13;;;5.40;86.60;;;;;;4996946;28;20031;-75
2021/01/17 03:34:29;;;;;;;123.73;54.53;;;5.40;86.80;;;;;;4996987;28;20395;-75
2021/01/17 03:36:55;;;;;;;109.93;45.03;;;5.40;87.10;;;;;;4996965;28;20098;-75
2021/01/17 03:39:20;;;;;;;69.17;32.03;;;5.30;88.30;;;;;;4996943;28;20452;-75
2021/01/17 03:41:46;;;;;;;53.70;25.73;;;5.10;89.70;;;;;;4996800;28;20030;-75
2021/01/17 03:44:12;;;;;;;39.93;19.30;;;5.20;90.20;;;;;;4996401;28;20154;-75
2021/01/17 03:46:37;;;;;;;47.37;15.23;;;5.10;90.80;;;;;;4996545;28;20105;-75
2021/01/17 03:49:03;;;;;;;32.23;13.60;;;5.20;90.80;;;;;;4996573;28;20038;-75
2021/01/17 03:51:28;;;;;;;37.50;11.47;;;5.20;90.60;;;;;;4996531;28;20132;-75
2021/01/17 03:53:54;;;;;;;28.00;9.87;;;5.30;90.40;;;;;;4978993;28;20018;-75
2021/01/17 03:56:20;;;;;;;28.37;8.60;;;5.40;90.40;;;;;;4996512;28;20069;-75
2021/01/17 03:58:45;;;;;;;28.40;6.33;;;5.30;90.50;;;;;;4996465;28;20026;-75
2021/01/17 04:01:11;;;;;;;25.27;6.90;;;5.50;90.30;;;;;;4996209;28;20034;-75
2021/01/17 04:03:37;;;;;;;25.03;5.80;;;5.60;90.10;;;;;;4996377;28;20034;-74
2021/01/17 04:06:03;;;;;;;23.80;5.90;;;5.60;90.10;;;;;;4995024;28;20034;-74
2021/01/17 04:08:28;;;;;;;34.40;6.03;;;5.60;90.10;;;;;;4996120;28;20468;-75
2021/01/17 04:10:54;;;;;;;29.83;5.67;;;5.50;90.00;;;;;;4996062;28;20034;-75
2021/01/17 04:13:19;;;;;;;24.53;6.10;;;5.60;90.20;;;;;;4996151;28;20447;-75
2021/01/17 04:15:45;;;;;;;28.37;5.27;;;5.70;89.80;;;;;;4994871;28;20084;-75
2021/01/17 04:18:10;;;;;;;33.50;6.60;;;5.80;89.10;;;;;;4996160;28;20022;-75
2021/01/17 04:20:37;;;;;;;32.67;6.20;;;5.90;89.30;;;;;;4994588;28;20117;-75
2021/01/17 04:23:06;;;;;;;33.50;6.77;;;6.00;88.70;;;;;;4996090;28;20026;-75
2021/01/17 04:25:31;;;;;;;28.13;5.47;;;5.90;88.80;;;;;;4995733;28;20530;-75
2021/01/17 04:27:57;;;;;;;24.83;5.77;;;5.90;88.50;;;;;;4996022;28;20034;-74
2021/01/17 04:30:26;;;;;;;28.20;5.87;;;5.80;89.30;;;;;;4995895;28;20023;-75
2021/01/17 04:32:52;;;;;;;26.53;5.70;;;5.70;89.80;;;;;;5010502;28;20073;-75
2021/01/17 04:35:18;;;;;;;38.43;7.50;;;5.90;89.90;;;;;;4995697;28;20488;-76
2021/01/17 04:37:44;;;;;;;29.03;5.97;;;5.90;89.90;;;;;;4995783;28;20022;-75
2021/01/17 04:40:10;;;;;;;31.87;6.33;;;6.00;89.30;;;;;;4995538;28;20038;-75
2021/01/17 04:42:36;;;;;;;39.00;7.47;;;6.00;89.40;;;;;;4995650;28;20022;-75
2021/01/17 04:45:05;;;;;;;35.77;8.77;;;6.20;88.60;;;;;;4995642;28;20026;-75
2021/01/17 04:47:30;;;;;;;45.30;8.93;;;6.20;88.20;;;;;;4995596;28;20034;-75
2021/01/17 04:50:00;;;;;;;36.27;8.23;;;6.20;88.10;;;;;;4978227;28;20109;-75
2021/01/17 04:52:28;;;;;;;41.63;9.20;;;6.10;88.30;;;;;;4995355;28;20030;-75
2021/01/17 04:54:54;;;;;;;36.30;7.37;;;6.20;87.80;;;;;;4995222;28;20030;-75
2021/01/17 04:57:23;;;;;;;36.63;7.53;;;6.20;87.30;;;;;;4995685;28;20391;-75
2021/01/17 05:00:03;;;;;;;28.60;5.80;;;6.20;86.90;;;;;;4995517;28;20030;-75
2021/01/17 05:02:53;;;;;;;27.02;5.13;;;6.00;86.60;;;;;;4994177;28;20058;-75
2021/01/17 05:05:24;;;;;;;24.00;4.87;;;6.30;85.80;;;;;;4994322;28;20038;-75
2021/01/17 05:08:09;;;;;;;23.70;4.57;;;6.30;84.90;;;;;;4995206;28;20031;-75
2021/01/17 05:10:38;;;;;;;30.10;4.80;;;6.30;85.30;;;;;;4994057;28;20053;-75
2021/01/17 05:13:09;;;;;;;27.83;5.33;;;6.40;84.60;;;;;;4995068;28;20032;-75
2021/01/17 05:15:37;;;;;;;35.28;7.50;;;6.40;84.50;;;;;;4995031;28;20026;-75
2021/01/17 05:18:02;;;;;;;27.93;7.43;;;6.50;84.60;;;;;;4995056;28;20483;-75
2021/01/17 05:20:28;;;;;;;36.10;8.60;;;6.50;84.50;;;;;;4994352;28;20046;-75
2021/01/17 05:22:53;;;;;;;33.33;7.90;;;6.60;83.90;;;;;;4993779;28;20026;-75
2021/01/17 05:25:19;;;;;;;35.07;8.37;;;6.60;84.20;;;;;;4977432;28;20423;-75
2021/01/17 05:27:48;;;;;;;35.70;7.50;;;6.30;85.00;;;;;;4993851;28;20380;-75
2021/01/17 05:30:14;;;;;;;33.23;7.10;;;6.20;86.10;;;;;;4994064;28;20034;-76
2021/01/17 05:32:40;;;;;;;41.33;7.27;;;6.40;85.90;;;;;;4994799;28;20037;-75
2021/01/17 05:35:06;;;;;;;30.00;6.77;;;6.50;85.30;;;;;;4994475;28;20031;-75
2021/01/17 05:37:31;;;;;;;34.27;6.73;;;6.50;85.30;;;;;;4994578;28;20031;-75
2021/01/17 05:40:04;;;;;;;35.07;7.33;;;6.60;84.70;;;;;;4993431;28;20026;-76
2021/01/17 05:42:38;;;;;;;28.63;6.53;;;6.70;84.20;;;;;;4994466;28;20399;-75
2021/01/17 05:45:16;;;;;;;40.60;6.83;;;6.60;84.00;;;;;;4995010;28;20031;-76
2021/01/17 05:47:51;;;;;;;38.07;7.23;;;6.40;85.00;;;;;;4994407;28;20495;-75
2021/01/17 05:50:17;;;;;;;41.93;6.47;;;6.40;85.20;;;;;;4994510;28;20129;-75
2021/01/17 05:52:42;;;;;;;47.47;6.93;;;6.20;86.00;;;;;;4994334;28;20054;-75
2021/01/17 05:55:09;;;;;;;39.80;6.40;;;6.10;86.70;;;;;;4993073;28;20109;-75
2021/01/17 05:57:35;;;;;;;34.77;7.07;;;6.30;86.30;;;;;;4993266;28;20121;-75
2021/01/17 06:00:01;;;;;;;34.53;6.90;;;6.40;85.80;;;;;;4994600;28;20065;-76
2021/01/17 06:02:27;;;;;;;35.33;7.60;;;6.40;85.50;;;;;;4994165;28;20476;-76
2021/01/17 06:04:56;;;;;;;30.67;7.00;;;6.40;85.70;;;;;;4994312;28;20029;-75
2021/01/17 06:07:23;;;;;;;41.40;6.67;;;6.40;85.10;;;;;;4994124;28;20498;-75
2021/01/17 06:09:56;;;;;;;40.00;6.97;;;6.30;85.30;;;;;;4994262;28;20353;-76
2021/01/17 06:12:30;;;;;;;34.50;6.63;;;6.30;85.80;;;;;;4994418;28;20026;-75
2021/01/17 06:15:02;;;;;;;50.23;7.77;;;6.40;86.00;;;;;;4994452;28;20460;-75
2021/01/17 06:17:28;;;;;;;35.57;7.33;;;6.50;85.20;;;;;;4994007;28;20049;-76
2021/01/17 06:19:53;;;;;;;42.13;8.27;;;6.60;84.40;;;;;;4994557;28;20483;-76
2021/01/17 06:22:22;;;;;;;30.23;7.10;;;6.80;83.70;;;;;;4992773;28;20026;-75
2021/01/17 06:24:47;;;;;;;48.37;8.30;;;6.90;82.90;;;;;;4992964;28;20042;-76
2021/01/17 06:27:13;;;;;;;38.23;7.70;;;6.70;83.00;;;;;;4976897;28;20042;-75
2021/01/17 06:29:38;;;;;;;39.33;7.23;;;6.70;83.40;;;;;;4977076;28;20050;-75
2021/01/17 06:32:24;;;;;;;37.50;6.70;;;6.80;82.90;;;;;;4994738;28;20113;-75
2021/01/17 06:34:54;;;;;;;39.63;6.80;;;6.80;82.50;;;;;;4997955;28;20071;-75
2021/01/17 06:37:20;;;;;;;30.47;7.03;;;6.70;82.40;;;;;;4998087;28;20049;-75
2021/01/17 06:39:48;;;;;;;38.47;7.70;;;6.70;82.60;;;;;;4996864;28;20399;-75
2021/01/17 06:42:14;;;;;;;42.37;6.57;;;6.60;83.00;;;;;;4998062;28;20109;-75
2021/01/17 06:44:39;;;;;;;37.67;7.63;;;6.60;82.80;;;;;;4997865;28;20153;-76
2021/01/17 06:47:22;;;;;;;36.47;7.90;;;6.70;82.70;;;;;;4997783;28;20026;-76
2021/01/17 06:49:48;;;;;;;37.17;7.60;;;6.60;83.00;;;;;;4997061;28;20022;-76
2021/01/17 06:52:17;;;;;;;30.20;7.67;;;6.40;83.50;;;;;;4996531;28;20038;-76
2021/01/17 06:54:50;;;;;;;42.63;8.60;;;6.30;84.20;;;;;;4997896;28;20031;-76
2021/01/17 06:57:16;;;;;;;38.83;8.83;;;6.40;84.10;;;;;;4981168;28;20467;-75
2021/01/17 06:59:51;;;;;;;42.83;8.90;;;6.40;83.90;;;;;;4997642;28;20023;-76
2021/01/17 07:02:25;;;;;;;49.17;8.67;;;6.60;83.40;;;;;;4998002;28;20030;-76
2021/01/17 07:05:12;;;;;;;41.20;9.20;;;6.60;83.20;;;;;;4997747;28;20109;-75
2021/01/17 07:07:44;;;;;;;41.60;8.73;;;6.50;83.20;;;;;;4997415;28;20037;-76
2021/01/17 07:10:11;;;;;;;40.87;8.67;;;6.40;84.00;;;;;;4997452;28;20029;-75
2021/01/17 07:12:59;;;;;;;46.93;9.83;;;6.40;84.10;;;;;;4997421;28;20082;-75
2021/01/17 07:15:34;;;;;;;45.20;8.97;;;6.40;84.00;;;;;;4997604;28;20057;-76
2021/01/17 07:18:02;;;;;;;40.90;9.07;;;6.60;83.40;;;;;;4997138;28;20494;-75
2021/01/17 07:20:38;;;;;;;41.33;8.43;;;6.60;83.10;;;;;;4997120;28;20038;-76
2021/01/17 07:23:04;;;;;;;49.47;8.93;;;6.50;83.80;;;;;;4997781;28;20029;-75
2021/01/17 07:25:31;;;;;;;41.03;8.63;;;6.30;84.90;;;;;;4996297;28;20034;-75
2021/01/17 07:28:08;;;;;;;46.63;9.37;;;6.40;84.60;;;;;;4997049;28;20387;-75
2021/01/17 07:30:48;;;;;;;40.63;7.67;;;6.40;84.60;;;;;;4997062;28;20117;-75
2021/01/17 07:33:24;;;;;;;40.03;8.30;;;6.60;84.10;;;;;;4997056;28;20030;-76
2021/01/17 07:35:49;;;;;;;40.67;8.23;;;6.80;83.10;;;;;;4997117;28;20258;-76
2021/01/17 07:38:20;;;;;;;44.77;9.53;;;6.70;83.10;;;;;;4996969;28;20041;-76
2021/01/17 07:40:51;;;;;;;39.38;7.53;;;6.30;84.40;;;;;;4995848;28;20034;-75
2021/01/17 07:43:18;;;;;;;42.95;9.75;;;6.40;84.30;;;;;;4996533;28;20033;-76
2021/01/17 07:45:44;;;;;;;35.87;7.37;;;6.50;84.00;;;;;;4996788;28;20054;-75
2021/01/17 07:48:11;;;;;;;38.97;8.17;;;6.50;83.40;;;;;;4996680;28;20533;-76
2021/01/17 07:50:38;;;;;;;36.30;7.33;;;6.70;82.70;;;;;;4995332;28;20427;-76
2021/01/17 07:53:17;;;;;;;33.87;7.57;;;6.70;82.70;;;;;;4992102;28;20027;-76
2021/01/17 07:55:43;;;;;;;37.03;7.47;;;6.70;82.70;;;;;;5002608;28;20019;-76
2021/01/17 07:58:10;;;;;;;40.87;6.97;;;6.70;82.60;;;;;;5001872;28;20041;-76
2021/01/17 08:00:38;;;;;;;40.40;7.43;;;6.80;82.20;;;;;;4985344;28;20542;-76
2021/01/17 08:03:03;;;;;;;42.10;7.47;;;6.90;81.80;;;;;;4986418;28;20015;-76
2021/01/17 08:05:48;;;;;;;37.87;7.33;;;7.00;81.50;;;;;;5001620;28;20031;-76
2021/01/17 08:08:33;;;;;;;31.60;7.57;;;6.90;81.70;;;;;;4996334;28;20034;-75
2021/01/17 08:10:58;;;;;;;40.77;7.87;;;7.00;81.60;;;;;;4996787;28;20031;-76
2021/01/17 08:13:27;;;;;;;30.93;7.27;;;7.00;81.30;;;;;;5011432;28;20030;-76
2021/01/17 08:16:10;;;;;;;37.37;8.60;;;7.00;81.40;;;;;;5011093;28;20026;-75
2021/01/17 08:18:36;;;;;;;48.77;8.10;;;7.00;81.50;;;;;;5011030;28;20030;-76
2021/01/17 08:21:20;;;;;;;49.23;7.90;;;7.00;81.60;;;;;;4995949;28;20042;-76
2021/01/17 08:24:13;;;;;;;40.87;8.97;;;7.00;81.50;;;;;;4996133;28;20022;-76
2021/01/17 08:27:00;;;;;;;38.43;8.20;;;7.10;81.30;;;;;;4995810;28;20051;-76
2021/01/17 08:29:26;;;;;;;47.40;8.80;;;7.10;81.10;;;;;;5010863;28;20042;-76
2021/01/17 08:31:51;;;;;;;41.57;8.00;;;7.10;81.00;;;;;;4995894;28;20055;-76
2021/01/17 08:34:25;;;;;;;36.23;8.27;;;7.10;81.40;;;;;;4995770;28;20030;-75
2021/01/17 08:36:53;;;;;;;45.17;8.40;;;7.10;81.20;;;;;;5010927;28;20019;-76
2021/01/17 08:39:44;;;;;;;42.50;7.53;;;6.80;82.10;;;;;;4995656;28;20345;-75
2021/01/17 08:42:29;;;;;;;34.97;7.88;;;6.80;83.20;;;;;;4995759;28;20054;-75
2021/01/17 08:44:55;;;;;;;34.73;6.70;;;6.90;82.30;;;;;;5010851;28;20376;-75
2021/01/17 08:47:21;;;;;;;33.60;6.57;;;6.60;83.40;;;;;;4995597;28;20030;-76
2021/01/17 08:49:47;;;;;;;36.70;6.17;;;6.30;85.20;;;;;;4995562;28;20097;-76
2021/01/17 08:52:13;;;;;;;41.87;6.40;;;6.20;86.00;;;;;;4995391;28;20026;-75
2021/01/17 08:54:48;;;;;;;28.20;4.93;;;6.40;85.30;;;;;;5009635;28;20100;-75
2021/01/17 08:57:42;;;;;;;35.10;5.33;;;6.30;86.00;;;;;;4995391;28;20089;-75
2021/01/17 09:00:12;;;;;;;34.80;5.17;;;6.30;85.70;;;;;;4995247;28;20027;-75
2021/01/17 09:02:38;;;;;;;32.87;5.40;;;6.30;85.60;;;;;;4985644;28;20035;-76
2021/01/17 09:05:04;;;;;;;41.57;6.67;;;6.40;85.30;;;;;;4975825;28;20057;-75
2021/01/17 09:07:33;;;;;;;28.17;5.40;;;6.30;85.90;;;;;;4982992;28;20034;-76
2021/01/17 09:10:06;;;;;;;28.47;5.00;;;6.30;85.90;;;;;;4977070;28;20050;-77
2021/01/17 09:12:34;;;;;;;32.43;5.50;;;6.30;85.90;;;;;;4981315;28;20101;-76
2021/01/17 09:15:00;;;;;;;33.03;5.60;;;6.30;85.80;;;;;;4975312;28;20031;-75
2021/01/17 09:17:25;;;;;;;29.67;5.67;;;6.30;85.90;;;;;;4973111;28;20031;-76
2021/01/17 09:19:55;;;;;;;36.23;5.93;;;6.50;85.40;;;;;;4974666;28;20460;-75
2021/01/17 09:22:21;;;;;;;29.80;5.57;;;6.60;85.40;;;;;;4974763;28;20100;-77
2021/01/17 09:24:47;;;;;;;31.57;5.10;;;6.60;85.10;;;;;;4989987;28;20113;-76
2021/01/17 09:27:12;;;;;;;31.07;4.90;;;6.60;85.00;;;;;;4990078;28;20030;-76
2021/01/17 09:29:41;;;;;;;32.07;5.80;;;6.70;84.90;;;;;;4974983;28;20495;-78
2021/01/17 09:32:14;;;;;;;33.30;5.87;;;6.60;85.00;;;;;;4983887;28;20080;-77
2021/01/17 09:34:41;;;;;;;33.23;5.90;;;6.70;84.70;;;;;;4994430;28;20529;-76
2021/01/17 09:37:09;;;;;;;31.90;5.77;;;6.80;84.70;;;;;;4993218;28;20043;-77
2021/01/17 09:39:41;;;;;;;32.27;5.83;;;6.90;84.20;;;;;;4993060;28;20165;-77
2021/01/17 09:42:07;;;;;;;35.77;6.03;;;7.10;83.10;;;;;;4977145;28;20030;-76
2021/01/17 09:44:34;;;;;;;32.67;5.37;;;6.90;84.10;;;;;;4994320;28;20034;-77
2021/01/17 09:47:00;;;;;;;28.47;5.77;;;7.00;83.70;;;;;;4993004;28;20034;-76
2021/01/17 09:49:28;;;;;;;42.50;7.33;;;7.10;83.70;;;;;;4993021;28;20030;-76
2021/01/17 09:51:54;;;;;;;37.50;6.10;;;7.20;83.40;;;;;;4977137;28;20445;-76
2021/01/17 09:54:20;;;;;;;29.27;5.40;;;7.30;83.00;;;;;;4989288;28;20113;-76
2021/01/17 09:56:46;;;;;;;38.77;6.63;;;7.50;82.10;;;;;;4983432;28;20102;-76
2021/01/17 09:59:16;;;;;;;26.33;6.33;;;7.40;82.20;;;;;;4974442;28;20158;-76
2021/01/17 10:01:42;;;;;;;28.88;6.30;;;7.40;82.10;;;;;;4980006;28;20026;-76
2021/01/17 10:04:08;;;;;;;36.40;6.37;;;7.40;82.30;;;;;;4989363;28;20097;-76
2021/01/17 10:06:34;;;;;;;33.73;5.27;;;7.50;82.00;;;;;;4972826;28;20117;-76
2021/01/17 10:08:59;;;;;;;27.30;5.95;;;7.60;81.10;;;;;;4957078;28;20033;-75
2021/01/17 10:11:25;;;;;;;25.20;6.10;;;7.50;81.50;;;;;;4969600;28;20026;-79
2021/01/17 10:13:50;;;;;;;27.07;6.17;;;7.30;82.70;;;;;;4987459;28;20101;-80
2021/01/17 10:16:23;;;;;;;31.13;6.25;;;7.30;82.70;;;;;;4989655;28;20038;-76
2021/01/17 10:18:49;;;;;;;21.77;5.57;;;7.20;82.70;;;;;;4993758;28;20023;-76
2021/01/17 10:21:15;;;;;;;27.15;5.68;;;7.20;82.90;;;;;;4993864;28;20077;-75
2021/01/17 10:23:41;;;;;;;31.93;6.37;;;7.20;83.40;;;;;;4993913;28;20026;-75
2021/01/17 10:26:07;;;;;;;29.23;5.77;;;7.20;83.60;;;;;;4976332;28;20077;-76
2021/01/17 10:28:32;;;;;;;25.63;5.30;;;7.50;82.50;;;;;;4992924;28;20049;-76
2021/01/17 10:30:59;;;;;;;37.50;6.33;;;7.40;82.20;;;;;;4993164;28;20357;-75
2021/01/17 10:33:24;;;;;;;23.93;5.13;;;7.50;82.00;;;;;;4994029;28;20468;-76
2021/01/17 10:35:50;;;;;;;25.60;4.40;;;7.50;82.10;;;;;;4994021;28;20037;-75
2021/01/17 10:38:16;;;;;;;26.77;5.07;;;7.50;82.10;;;;;;4994056;28;20133;-76
2021/01/17 10:40:43;;;;;;;24.73;5.83;;;7.50;81.70;;;;;;4992823;28;20085;-76
2021/01/17 10:43:23;;;;;;;27.37;5.40;;;7.40;81.90;;;;;;4994319;28;20026;-75
2021/01/17 10:46:02;;;;;;;28.57;5.87;;;7.40;82.30;;;;;;4993873;28;20057;-75
2021/01/17 10:48:28;;;;;;;29.03;5.77;;;7.40;82.10;;;;;;4992730;28;20289;-75
2021/01/17 10:50:57;;;;;;;23.67;5.43;;;7.40;82.60;;;;;;4976301;28;20034;-76
2021/01/17 10:53:29;;;;;;;26.40;5.20;;;7.50;81.50;;;;;;4992786;28;20023;-75
2021/01/17 10:55:58;;;;;;;36.87;5.57;;;7.50;80.80;;;;;;4992703;28;20031;-76
2021/01/17 10:58:33;;;;;;;28.10;5.40;;;7.60;80.70;;;;;;4992631;28;20029;-75
2021/01/17 11:01:00;;;;;;;23.60;4.80;;;7.60;80.00;;;;;;4976931;28;20026;-75
2021/01/17 11:03:31;;;;;;;28.93;4.90;;;7.60;80.90;;;;;;4993667;28;20026;-76
2021/01/17 11:06:07;;;;;;;25.03;5.50;;;7.50;80.60;;;;;;4992521;28;20040;-76
2021/01/17 11:08:55;;;;;;;31.13;5.73;;;7.40;81.30;;;;;;4993912;28;20033;-75
2021/01/17 11:11:22;;;;;;;33.27;6.07;;;7.50;81.00;;;;;;4993859;28;20034;-75
2021/01/17 11:13:58;;;;;;;20.93;4.40;;;7.50;80.70;;;;;;4992497;28;20034;-75
2021/01/17 11:16:37;;;;;;;23.58;4.45;;;7.60;81.30;;;;;;4993583;28;20039;-75
2021/01/17 11:19:04;;;;;;;28.00;4.57;;;7.60;80.70;;;;;;4994709;28;20045;-75
2021/01/17 11:21:30;;;;;;;25.20;4.82;;;7.70;80.10;;;;;;4998061;28;20116;-74
2021/01/17 11:23:56;;;;;;;25.83;4.47;;;7.90;80.00;;;;;;5000255;28;20026;-74
2021/01/17 11:26:22;;;;;;;32.33;5.27;;;7.80;79.40;;;;;;4999059;28;20530;-76
2021/01/17 11:28:55;;;;;;;29.83;5.13;;;7.70;79.70;;;;;;4997179;28;20062;-77
2021/01/17 11:31:21;;;;;;;20.15;4.55;;;7.70;80.00;;;;;;4996931;28;20022;-76
2021/01/17 11:33:47;;;;;;;27.27;5.30;;;7.60;80.70;;;;;;4997134;28;20100;-76
2021/01/17 11:36:19;;;;;;;22.40;4.35;;;7.70;80.70;;;;;;4996874;28;20065;-76
2021/01/17 11:38:54;;;;;;;24.60;4.78;;;7.90;79.70;;;;;;4996918;28;20476;-77
2021/01/17 11:41:23;;;;;;;27.02;4.82;;;7.90;79.10;;;;;;4996936;28;20038;-76
2021/01/17 11:43:49;;;;;;;29.98;3.92;;;7.80;79.60;;;;;;4996866;28;20026;-76
2021/01/17 11:46:16;;;;;;;24.85;5.30;;;7.90;79.10;;;;;;4996347;28;20435;-76
2021/01/17 11:48:42;;;;;;;30.00;5.38;;;7.80;79.20;;;;;;4996808;28;20038;-76
2021/01/17 11:51:09;;;;;;;21.70;4.45;;;7.90;79.10;;;;;;4996702;28;20042;-76
2021/01/17 11:53:34;;;;;;;28.05;4.68;;;8.00;79.00;;;;;;4996566;28;20522;-76
2021/01/17 11:56:00;;;;;;;21.42;4.50;;;8.00;77.90;;;;;;4997061;28;20034;-76
2021/01/17 11:58:26;;;;;;;27.02;5.28;;;7.90;78.70;;;;;;4996526;28;20084;-76
2021/01/17 12:00:57;;;;;;;27.88;5.93;;;7.90;79.00;;;;;;4995541;28;20411;-77
2021/01/17 12:03:45;;;;;;;22.80;4.97;;;8.10;78.40;;;;;;5011155;28;20033;-77
2021/01/17 12:06:11;;;;;;;33.05;6.15;;;8.20;77.70;;;;;;5011443;28;20042;-77
2021/01/17 12:09:02;;;;;;;22.40;5.30;;;8.20;77.40;;;;;;4996407;28;20526;-77
2021/01/17 12:11:34;;;;;;;27.42;5.63;;;8.10;77.90;;;;;;4996555;28;20519;-77
2021/01/17 12:14:01;;;;;;;26.02;4.85;;;8.10;77.90;;;;;;4996457;28;20022;-77
2021/01/17 12:16:43;;;;;;;21.48;4.47;;;8.10;77.70;;;;;;4996307;28;20464;-77
2021/01/17 12:19:11;;;;;;;24.77;4.80;;;8.00;77.80;;;;;;5011244;28;20077;-77
2021/01/17 12:21:36;;;;;;;20.38;4.20;;;8.00;78.10;;;;;;4996082;28;20046;-76
2021/01/17 12:24:04;;;;;;;18.25;4.15;;;8.00;77.60;;;;;;5011176;28;20102;-76
2021/01/17 12:26:29;;;;;;;23.08;4.63;;;7.90;77.90;;;;;;4996045;28;20027;-77
2021/01/17 12:28:55;;;;;;;21.13;3.95;;;8.00;77.90;;;;;;4995957;28;20029;-77
2021/01/17 12:31:21;;;;;;;26.23;4.05;;;8.10;77.70;;;;;;4996166;28;20030;-76
2021/01/17 12:33:47;;;;;;;19.30;3.70;;;8.10;77.50;;;;;;4996243;28;20031;-76
2021/01/17 12:36:15;;;;;;;24.70;3.80;;;8.10;77.40;;;;;;4995873;28;20049;-77
2021/01/17 12:38:41;;;;;;;24.52;4.35;;;8.10;76.60;;;;;;5010764;28;20031;-77
2021/01/17 12:41:08;;;;;;;24.65;4.65;;;8.10;77.60;;;;;;4995804;28;20069;-77
2021/01/17 12:43:33;;;;;;;19.05;3.88;;;8.30;76.90;;;;;;4994445;28;20037;-77
2021/01/17 12:45:59;;;;;;;27.38;4.97;;;8.30;75.70;;;;;;4995869;28;20026;-77
2021/01/17 12:48:25;;;;;;;18.63;4.13;;;8.20;75.60;;;;;;4995799;28;20041;-77
2021/01/17 12:50:50;;;;;;;21.35;4.78;;;8.20;75.30;;;;;;4995480;28;20483;-77